sensor_id;sensor_type;location;lat;lon;timestamp;temperature;humidity
4406;DHT22;2216;53.806;11.598;2023-03-01T00:01:31;-1.10;73.80
4406;DHT22;2216;53.806;11.598;2023-03-01T00:03:58;-1.00;73.90
4406;DHT22;2216;53.806;11.598;2023-03-01T00:06:25;-1.10;73.80
4406;DHT22;2216;53.806;11.598;2023-03-01T00:08:51;-1.10;74.20
4406;DHT22;2216;53.806;11.598;2023-03-01T00:11:25;-1.10;73.80
4406;DHT22;2216;53.806;11.598;2023-03-01T00:13:55;-1.10;73.90
4406;DHT22;2216;53.806;11.598;2023-03-01T00:16:39;-1.20;73.80
4406;DHT22;2216;53.806;11.598;2023-03-01T00:19:07;-1.10;73.80
4406;DHT22;2216;53.806;11.598;2023-03-01T00:21:35;-1.10;73.90
4406;DHT22;2216;53.806;11.598;2023-03-01T00:24:01;-1.20;73.80
4406;DHT22;2216;53.806;11.598;2023-03-01T00:26:27;-1.20;73.80
4406;DHT22;2216;53.806;11.598;2023-03-01T00:28:53;-1.20;73.90
4406;DHT22;2216;53.806;11.598;2023-03-01T00:31:27;-1.20;73.90
4406;DHT22;2216;53.806;11.598;2023-03-01T00:33:56;-1.20;74.60
4406;DHT22;2216;53.806;11.598;2023-03-01T00:36:26;-1.20;73.90
4406;DHT22;2216;53.806;11.598;2023-03-01T00:38:54;-1.20;73.90
4406;DHT22;2216;53.806;11.598;2023-03-01T00:41:20;-1.30;73.90
4406;DHT22;2216;53.806;11.598;2023-03-01T00:43:48;-1.30;73.90
4406;DHT22;2216;53.806;11.598;2023-03-01T00:46:18;-1.30;73.90
4406;DHT22;2216;53.806;11.598;2023-03-01T00:48:47;-1.30;73.90
4406;DHT22;2216;53.806;11.598;2023-03-01T00:51:19;-1.30;73.90
4406;DHT22;2216;53.806;11.598;2023-03-01T00:53:49;-1.30;74.00
4406;DHT22;2216;53.806;11.598;2023-03-01T00:56:16;-1.30;74.00
4406;DHT22;2216;53.806;11.598;2023-03-01T00:58:42;-1.30;74.00
4406;DHT22;2216;53.806;11.598;2023-03-01T01:01:22;-1.30;74.00
4406;DHT22;2216;53.806;11.598;2023-03-01T01:03:54;-1.30;74.00
4406;DHT22;2216;53.806;11.598;2023-03-01T01:06:35;-1.20;74.10
4406;DHT22;2216;53.806;11.598;2023-03-01T01:09:05;-1.20;74.10
4406;DHT22;2216;53.806;11.598;2023-03-01T01:11:32;-1.20;74.10
4406;DHT22;2216;53.806;11.598;2023-03-01T01:13:58;-1.30;74.00
4406;DHT22;2216;53.806;11.598;2023-03-01T01:16:26;-1.30;74.00
4406;DHT22;2216;53.806;11.598;2023-03-01T01:18:53;-1.30;74.00
4406;DHT22;2216;53.806;11.598;2023-03-01T01:21:20;-1.30;74.00
4406;DHT22;2216;53.806;11.598;2023-03-01T01:23:47;-1.30;74.00
4406;DHT22;2216;53.806;11.598;2023-03-01T01:26:16;-1.30;74.00
4406;DHT22;2216;53.806;11.598;2023-03-01T01:28:44;-1.30;74.00
4406;DHT22;2216;53.806;11.598;2023-03-01T01:31:10;-1.30;74.00
4406;DHT22;2216;53.806;11.598;2023-03-01T01:33:36;-1.30;74.00
4406;DHT22;2216;53.806;11.598;2023-03-01T01:36:03;-1.30;74.00
4406;DHT22;2216;53.806;11.598;2023-03-01T01:38:30;-1.30;73.90
4406;DHT22;2216;53.806;11.598;2023-03-01T01:40:56;-1.30;73.90
4406;DHT22;2216;53.806;11.598;2023-03-01T01:43:27;-1.30;73.90
4406;DHT22;2216;53.806;11.598;2023-03-01T01:46:02;-1.30;73.90
4406;DHT22;2216;53.806;11.598;2023-03-01T01:48:43;-1.30;73.90
4406;DHT22;2216;53.806;11.598;2023-03-01T01:51:15;-1.30;73.90
4406;DHT22;2216;53.806;11.598;2023-03-01T01:53:46;-1.30;73.90
4406;DHT22;2216;53.806;11.598;2023-03-01T01:56:14;-1.30;73.90
4406;DHT22;2216;53.806;11.598;2023-03-01T01:58:42;-1.40;73.80
4406;DHT22;2216;53.806;11.598;2023-03-01T02:01:09;-1.40;73.90
4406;DHT22;2216;53.806;11.598;2023-03-01T02:03:37;-1.40;73.90
4406;DHT22;2216;53.806;11.598;2023-03-01T02:06:46;-1.40;73.90
4406;DHT22;2216;53.806;11.598;2023-03-01T02:09:15;-1.40;73.90
4406;DHT22;2216;53.806;11.598;2023-03-01T02:11:43;-1.40;73.90
4406;DHT22;2216;53.806;11.598;2023-03-01T02:14:09;-1.40;73.90
4406;DHT22;2216;53.806;11.598;2023-03-01T02:16:35;-1.40;73.90
4406;DHT22;2216;53.806;11.598;2023-03-01T02:19:03;-1.40;74.00
4406;DHT22;2216;53.806;11.598;2023-03-01T02:21:56;-1.50;73.90
4406;DHT22;2216;53.806;11.598;2023-03-01T02:30:36;-1.50;73.90
4406;DHT22;2216;53.806;11.598;2023-03-01T02:33:03;-1.50;73.90
4406;DHT22;2216;53.806;11.598;2023-03-01T02:35:34;-1.50;74.00
4406;DHT22;2216;53.806;11.598;2023-03-01T02:38:01;-1.50;74.00
4406;DHT22;2216;53.806;11.598;2023-03-01T02:40:29;-1.50;74.00
4406;DHT22;2216;53.806;11.598;2023-03-01T02:42:57;-1.50;74.00
4406;DHT22;2216;53.806;11.598;2023-03-01T02:45:25;-1.50;74.00
4406;DHT22;2216;53.806;11.598;2023-03-01T02:47:55;-1.50;73.90
4406;DHT22;2216;53.806;11.598;2023-03-01T02:53:01;-1.50;74.00
4406;DHT22;2216;53.806;11.598;2023-03-01T02:55:33;-1.50;74.00
4406;DHT22;2216;53.806;11.598;2023-03-01T02:58:02;-1.50;74.00
4406;DHT22;2216;53.806;11.598;2023-03-01T03:00:35;-1.50;74.00
4406;DHT22;2216;53.806;11.598;2023-03-01T03:03:06;-1.60;74.00
4406;DHT22;2216;53.806;11.598;2023-03-01T03:05:33;-1.50;74.00
4406;DHT22;2216;53.806;11.598;2023-03-01T03:08:01;-1.60;74.00
4406;DHT22;2216;53.806;11.598;2023-03-01T03:10:35;-1.50;74.00
4406;DHT22;2216;53.806;11.598;2023-03-01T03:13:04;-1.50;74.00
4406;DHT22;2216;53.806;11.598;2023-03-01T03:15:37;-1.60;74.00
4406;DHT22;2216;53.806;11.598;2023-03-01T03:18:07;-1.50;74.10
4406;DHT22;2216;53.806;11.598;2023-03-01T03:20:35;-1.60;74.00
4406;DHT22;2216;53.806;11.598;2023-03-01T03:23:01;-1.50;74.10
4406;DHT22;2216;53.806;11.598;2023-03-01T03:25:28;-1.60;74.00
4406;DHT22;2216;53.806;11.598;2023-03-01T03:27:54;-1.60;74.00
4406;DHT22;2216;53.806;11.598;2023-03-01T03:30:23;-1.50;74.00
4406;DHT22;2216;53.806;11.598;2023-03-01T03:32:50;-1.60;74.00
4406;DHT22;2216;53.806;11.598;2023-03-01T03:35:33;-1.60;73.90
4406;DHT22;2216;53.806;11.598;2023-03-01T03:38:06;-1.60;73.90
4406;DHT22;2216;53.806;11.598;2023-03-01T03:40:41;-1.60;74.00
4406;DHT22;2216;53.806;11.598;2023-03-01T03:43:20;-1.30;74.20
4406;DHT22;2216;53.806;11.598;2023-03-01T03:45:49;-1.60;74.00
4406;DHT22;2216;53.806;11.598;2023-03-01T03:48:16;-1.60;74.00
4406;DHT22;2216;53.806;11.598;2023-03-01T03:50:47;-1.60;74.00
4406;DHT22;2216;53.806;11.598;2023-03-01T03:53:14;-1.60;74.00
4406;DHT22;2216;53.806;11.598;2023-03-01T03:55:40;-1.60;74.00
4406;DHT22;2216;53.806;11.598;2023-03-01T03:58:08;-1.60;74.00
4406;DHT22;2216;53.806;11.598;2023-03-01T04:00:40;-1.60;74.00
4406;DHT22;2216;53.806;11.598;2023-03-01T04:03:08;-1.60;74.00
4406;DHT22;2216;53.806;11.598;2023-03-01T04:05:35;-1.60;74.00
4406;DHT22;2216;53.806;11.598;2023-03-01T04:08:01;-1.70;73.90
4406;DHT22;2216;53.806;11.598;2023-03-01T04:10:29;-1.70;73.90
4406;DHT22;2216;53.806;11.598;2023-03-01T04:12:56;-1.70;73.90
4406;DHT22;2216;53.806;11.598;2023-03-01T04:15:23;-1.70;74.00
4406;DHT22;2216;53.806;11.598;2023-03-01T04:17:51;-1.70;74.00
4406;DHT22;2216;53.806;11.598;2023-03-01T04:20:23;-1.70;73.90
4406;DHT22;2216;53.806;11.598;2023-03-01T04:22:55;-1.70;74.00
4406;DHT22;2216;53.806;11.598;2023-03-01T04:25:23;-1.70;74.00
4406;DHT22;2216;53.806;11.598;2023-03-01T04:27:50;-1.70;74.00
4406;DHT22;2216;53.806;11.598;2023-03-01T04:30:16;-1.80;73.90
4406;DHT22;2216;53.806;11.598;2023-03-01T04:32:41;-1.70;74.10
4406;DHT22;2216;53.806;11.598;2023-03-01T04:35:08;-1.80;74.00
4406;DHT22;2216;53.806;11.598;2023-03-01T04:37:33;-1.80;74.00
4406;DHT22;2216;53.806;11.598;2023-03-01T04:40:00;-1.70;74.20
4406;DHT22;2216;53.806;11.598;2023-03-01T04:42:33;-1.70;74.20
4406;DHT22;2216;53.806;11.598;2023-03-01T04:44:58;-1.70;74.20
4406;DHT22;2216;53.806;11.598;2023-03-01T04:47:24;-1.70;74.20
4406;DHT22;2216;53.806;11.598;2023-03-01T04:49:50;-1.70;74.20
4406;DHT22;2216;53.806;11.598;2023-03-01T04:52:15;-1.70;74.20
4406;DHT22;2216;53.806;11.598;2023-03-01T04:54:41;-1.70;74.20
4406;DHT22;2216;53.806;11.598;2023-03-01T04:57:08;-1.70;74.20
4406;DHT22;2216;53.806;11.598;2023-03-01T04:59:34;-1.70;74.10
4406;DHT22;2216;53.806;11.598;2023-03-01T05:02:01;-1.70;74.10
4406;DHT22;2216;53.806;11.598;2023-03-01T05:04:27;-1.70;74.10
4406;DHT22;2216;53.806;11.598;2023-03-01T05:06:53;-1.70;74.10
4406;DHT22;2216;53.806;11.598;2023-03-01T05:09:19;-1.70;74.10
4406;DHT22;2216;53.806;11.598;2023-03-01T05:11:44;-1.70;74.10
4406;DHT22;2216;53.806;11.598;2023-03-01T05:14:10;-1.70;74.10
4406;DHT22;2216;53.806;11.598;2023-03-01T05:16:36;-1.70;74.10
4406;DHT22;2216;53.806;11.598;2023-03-01T05:19:03;-1.70;74.10
4406;DHT22;2216;53.806;11.598;2023-03-01T05:21:41;-1.70;74.10
4406;DHT22;2216;53.806;11.598;2023-03-01T05:24:27;-1.70;74.10
4406;DHT22;2216;53.806;11.598;2023-03-01T05:26:53;-1.80;74.00
4406;DHT22;2216;53.806;11.598;2023-03-01T05:29:19;-1.80;74.10
4406;DHT22;2216;53.806;11.598;2023-03-01T05:31:54;-1.80;74.10
4406;DHT22;2216;53.806;11.598;2023-03-01T05:34:25;-1.80;74.10
4406;DHT22;2216;53.806;11.598;2023-03-01T05:36:56;-1.80;74.10
4406;DHT22;2216;53.806;11.598;2023-03-01T05:39:23;-1.70;74.90
4406;DHT22;2216;53.806;11.598;2023-03-01T05:41:55;-1.80;74.20
4406;DHT22;2216;53.806;11.598;2023-03-01T05:44:23;-1.80;74.20
4406;DHT22;2216;53.806;11.598;2023-03-01T05:46:49;-1.70;74.30
4406;DHT22;2216;53.806;11.598;2023-03-01T05:49:15;-1.70;74.40
4406;DHT22;2216;53.806;11.598;2023-03-01T05:51:42;-1.70;74.40
4406;DHT22;2216;53.806;11.598;2023-03-01T05:54:09;-1.70;75.10
4406;DHT22;2216;53.806;11.598;2023-03-01T05:56:36;-1.70;74.30
4406;DHT22;2216;53.806;11.598;2023-03-01T05:59:03;-1.70;74.30
4406;DHT22;2216;53.806;11.598;2023-03-01T06:01:31;-1.70;74.40
4406;DHT22;2216;53.806;11.598;2023-03-01T06:03:57;-1.70;74.30
4406;DHT22;2216;53.806;11.598;2023-03-01T06:06:23;-1.70;74.40
4406;DHT22;2216;53.806;11.598;2023-03-01T06:08:49;-1.60;74.40
4406;DHT22;2216;53.806;11.598;2023-03-01T06:11:16;-1.60;74.40
4406;DHT22;2216;53.806;11.598;2023-03-01T06:13:43;-1.60;74.50
4406;DHT22;2216;53.806;11.598;2023-03-01T06:16:09;-1.60;74.50
4406;DHT22;2216;53.806;11.598;2023-03-01T06:18:36;-1.60;74.50
4406;DHT22;2216;53.806;11.598;2023-03-01T06:21:02;-1.60;74.40
4406;DHT22;2216;53.806;11.598;2023-03-01T06:23:28;-1.50;74.50
4406;DHT22;2216;53.806;11.598;2023-03-01T06:25:54;-1.50;74.60
4406;DHT22;2216;53.806;11.598;2023-03-01T06:28:20;-1.50;74.50
4406;DHT22;2216;53.806;11.598;2023-03-01T06:30:46;-1.50;74.50
4406;DHT22;2216;53.806;11.598;2023-03-01T06:33:11;-1.50;74.50
4406;DHT22;2216;53.806;11.598;2023-03-01T06:35:37;-1.40;74.60
4406;DHT22;2216;53.806;11.598;2023-03-01T06:38:04;-1.40;74.60
4406;DHT22;2216;53.806;11.598;2023-03-01T06:40:30;-1.40;74.70
4406;DHT22;2216;53.806;11.598;2023-03-01T06:42:57;-1.40;74.70
4406;DHT22;2216;53.806;11.598;2023-03-01T06:45:23;-1.30;74.90
4406;DHT22;2216;53.806;11.598;2023-03-01T06:47:49;-1.30;74.90
4406;DHT22;2216;53.806;11.598;2023-03-01T06:50:16;-1.20;75.00
4406;DHT22;2216;53.806;11.598;2023-03-01T06:52:42;-1.20;75.10
4406;DHT22;2216;53.806;11.598;2023-03-01T06:55:10;-1.10;75.10
4406;DHT22;2216;53.806;11.598;2023-03-01T06:57:37;-1.10;75.20
4406;DHT22;2216;53.806;11.598;2023-03-01T07:00:06;-1.00;75.20
4406;DHT22;2216;53.806;11.598;2023-03-01T07:02:32;-1.00;75.20
4406;DHT22;2216;53.806;11.598;2023-03-01T07:04:58;-0.80;75.40
4406;DHT22;2216;53.806;11.598;2023-03-01T07:07:23;-0.80;75.40
4406;DHT22;2216;53.806;11.598;2023-03-01T07:09:49;-0.70;75.50
4406;DHT22;2216;53.806;11.598;2023-03-01T07:12:15;-0.70;75.50
4406;DHT22;2216;53.806;11.598;2023-03-01T07:14:43;-0.60;75.60
4406;DHT22;2216;53.806;11.598;2023-03-01T07:17:09;-0.50;75.70
4406;DHT22;2216;53.806;11.598;2023-03-01T07:19:34;-0.40;75.70
4406;DHT22;2216;53.806;11.598;2023-03-01T07:22:00;-0.40;75.70
4406;DHT22;2216;53.806;11.598;2023-03-01T07:24:26;-0.30;75.70
4406;DHT22;2216;53.806;11.598;2023-03-01T07:26:51;-0.20;76.50
4406;DHT22;2216;53.806;11.598;2023-03-01T07:29:18;-0.10;75.90
4406;DHT22;2216;53.806;11.598;2023-03-01T07:31:44;-0.10;75.90
4406;DHT22;2216;53.806;11.598;2023-03-01T07:34:10;0.00;75.90
4406;DHT22;2216;53.806;11.598;2023-03-01T07:36:36;0.10;75.90
4406;DHT22;2216;53.806;11.598;2023-03-01T07:39:02;0.20;75.90
4406;DHT22;2216;53.806;11.598;2023-03-01T07:41:29;0.20;75.90
4406;DHT22;2216;53.806;11.598;2023-03-01T07:43:55;0.30;76.00
4406;DHT22;2216;53.806;11.598;2023-03-01T07:46:21;0.40;76.00
4406;DHT22;2216;53.806;11.598;2023-03-01T07:48:47;0.50;76.10
4406;DHT22;2216;53.806;11.598;2023-03-01T07:51:13;0.60;76.10
4406;DHT22;2216;53.806;11.598;2023-03-01T07:53:39;0.70;76.20
4406;DHT22;2216;53.806;11.598;2023-03-01T07:56:08;0.80;76.30
4406;DHT22;2216;53.806;11.598;2023-03-01T07:58:36;0.80;77.00
4406;DHT22;2216;53.806;11.598;2023-03-01T08:01:04;1.00;76.40
4406;DHT22;2216;53.806;11.598;2023-03-01T08:03:31;1.10;76.50
4406;DHT22;2216;53.806;11.598;2023-03-01T08:05:59;1.20;76.50
4406;DHT22;2216;53.806;11.598;2023-03-01T08:08:26;1.30;76.60
4406;DHT22;2216;53.806;11.598;2023-03-01T08:10:52;1.40;76.70
4406;DHT22;2216;53.806;11.598;2023-03-01T08:13:17;1.60;76.80
4406;DHT22;2216;53.806;11.598;2023-03-01T08:15:48;1.90;77.00
4406;DHT22;2216;53.806;11.598;2023-03-01T08:18:15;1.80;76.90
4406;DHT22;2216;53.806;11.598;2023-03-01T08:20:41;1.90;76.90
4406;DHT22;2216;53.806;11.598;2023-03-01T08:23:07;2.00;77.00
4406;DHT22;2216;53.806;11.598;2023-03-01T08:25:33;2.20;77.00
4406;DHT22;2216;53.806;11.598;2023-03-01T08:27:58;2.30;76.90
4406;DHT22;2216;53.806;11.598;2023-03-01T08:30:24;2.40;76.70
4406;DHT22;2216;53.806;11.598;2023-03-01T08:32:50;2.50;76.50
4406;DHT22;2216;53.806;11.598;2023-03-01T08:35:16;2.60;76.50
4406;DHT22;2216;53.806;11.598;2023-03-01T08:37:42;2.60;76.40
4406;DHT22;2216;53.806;11.598;2023-03-01T08:40:08;2.80;76.50
4406;DHT22;2216;53.806;11.598;2023-03-01T08:42:36;2.80;76.50
4406;DHT22;2216;53.806;11.598;2023-03-01T08:45:03;2.90;77.30
4406;DHT22;2216;53.806;11.598;2023-03-01T08:47:29;3.00;76.80
4406;DHT22;2216;53.806;11.598;2023-03-01T08:49:55;3.10;77.00
4406;DHT22;2216;53.806;11.598;2023-03-01T08:52:21;3.20;77.20
4406;DHT22;2216;53.806;11.598;2023-03-01T08:54:48;3.50;77.40
4406;DHT22;2216;53.806;11.598;2023-03-01T08:57:14;3.80;77.80
4406;DHT22;2216;53.806;11.598;2023-03-01T08:59:40;3.70;77.70
4406;DHT22;2216;53.806;11.598;2023-03-01T09:02:11;3.90;77.80
4406;DHT22;2216;53.806;11.598;2023-03-01T09:04:42;4.10;77.80
4406;DHT22;2216;53.806;11.598;2023-03-01T09:07:08;4.30;77.80
4406;DHT22;2216;53.806;11.598;2023-03-01T09:09:34;4.40;77.80
4406;DHT22;2216;53.806;11.598;2023-03-01T09:12:01;4.60;77.80
4406;DHT22;2216;53.806;11.598;2023-03-01T09:14:27;4.70;77.80
4406;DHT22;2216;53.806;11.598;2023-03-01T09:16:53;4.90;77.80
4406;DHT22;2216;53.806;11.598;2023-03-01T09:19:19;5.00;77.80
4406;DHT22;2216;53.806;11.598;2023-03-01T09:21:44;5.30;77.90
4406;DHT22;2216;53.806;11.598;2023-03-01T09:24:19;5.40;77.90
4406;DHT22;2216;53.806;11.598;2023-03-01T09:26:46;5.60;77.90
4406;DHT22;2216;53.806;11.598;2023-03-01T09:29:12;5.70;77.90
4406;DHT22;2216;53.806;11.598;2023-03-01T09:31:39;5.90;78.00
4406;DHT22;2216;53.806;11.598;2023-03-01T09:34:05;6.10;78.10
4406;DHT22;2216;53.806;11.598;2023-03-01T09:36:32;6.30;78.10
4406;DHT22;2216;53.806;11.598;2023-03-01T09:38:58;6.50;78.20
4406;DHT22;2216;53.806;11.598;2023-03-01T09:41:45;6.60;78.00
4406;DHT22;2216;53.806;11.598;2023-03-01T09:44:38;6.80;77.90
4406;DHT22;2216;53.806;11.598;2023-03-01T09:47:24;6.90;77.70
4406;DHT22;2216;53.806;11.598;2023-03-01T09:52:45;7.20;77.40
4406;DHT22;2216;53.806;11.598;2023-03-01T09:55:31;7.30;77.60
4406;DHT22;2216;53.806;11.598;2023-03-01T10:04:26;7.80;77.80
4406;DHT22;2216;53.806;11.598;2023-03-01T10:10:22;8.20;77.50
4406;DHT22;2216;53.806;11.598;2023-03-01T10:13:08;8.30;77.70
4406;DHT22;2216;53.806;11.598;2023-03-01T10:15:47;8.50;77.70
4406;DHT22;2216;53.806;11.598;2023-03-01T10:18:25;8.60;77.70
4406;DHT22;2216;53.806;11.598;2023-03-01T10:20:58;8.70;77.80
4406;DHT22;2216;53.806;11.598;2023-03-01T10:23:26;8.80;77.50
4406;DHT22;2216;53.806;11.598;2023-03-01T10:31:24;9.30;77.60
4406;DHT22;2216;53.806;11.598;2023-03-01T10:33:55;9.40;76.90
4406;DHT22;2216;53.806;11.598;2023-03-01T10:36:23;9.50;77.20
4406;DHT22;2216;53.806;11.598;2023-03-01T10:38:55;9.60;77.30
4406;DHT22;2216;53.806;11.598;2023-03-01T10:41:24;9.70;77.30
4406;DHT22;2216;53.806;11.598;2023-03-01T10:43:58;9.80;77.20
4406;DHT22;2216;53.806;11.598;2023-03-01T10:46:31;9.90;77.30
4406;DHT22;2216;53.806;11.598;2023-03-01T10:51:49;10.00;76.60
4406;DHT22;2216;53.806;11.598;2023-03-01T10:54:29;10.10;76.70
4406;DHT22;2216;53.806;11.598;2023-03-01T10:57:01;10.10;76.70
4406;DHT22;2216;53.806;11.598;2023-03-01T10:59:36;10.20;76.80
4406;DHT22;2216;53.806;11.598;2023-03-01T11:04:35;10.30;76.60
4406;DHT22;2216;53.806;11.598;2023-03-01T11:07:02;10.40;76.90
4406;DHT22;2216;53.806;11.598;2023-03-01T11:09:32;10.50;77.00
4406;DHT22;2216;53.806;11.598;2023-03-01T11:12:08;10.60;77.00
4406;DHT22;2216;53.806;11.598;2023-03-01T11:14:49;10.60;77.00
4406;DHT22;2216;53.806;11.598;2023-03-01T11:17:30;10.70;77.00
4406;DHT22;2216;53.806;11.598;2023-03-01T11:25:56;10.90;76.70
4406;DHT22;2216;53.806;11.598;2023-03-01T11:28:27;11.00;76.80
4406;DHT22;2216;53.806;11.598;2023-03-01T11:31:10;11.10;77.00
4406;DHT22;2216;53.806;11.598;2023-03-01T11:33:55;11.10;77.00
4406;DHT22;2216;53.806;11.598;2023-03-01T11:36:43;11.30;77.20
4406;DHT22;2216;53.806;11.598;2023-03-01T11:39:33;11.30;77.30
4406;DHT22;2216;53.806;11.598;2023-03-01T11:45:17;11.60;76.60
4406;DHT22;2216;53.806;11.598;2023-03-01T11:50:44;11.50;76.60
4406;DHT22;2216;53.806;11.598;2023-03-01T11:56:10;11.70;77.20
4406;DHT22;2216;53.806;11.598;2023-03-01T12:05:08;11.80;76.90
4406;DHT22;2216;53.806;11.598;2023-03-01T12:08:25;11.80;77.10
4406;DHT22;2216;53.806;11.598;2023-03-01T12:15:27;11.90;76.30
4406;DHT22;2216;53.806;11.598;2023-03-01T12:17:55;11.90;76.30
4406;DHT22;2216;53.806;11.598;2023-03-01T12:20:47;11.90;76.40
4406;DHT22;2216;53.806;11.598;2023-03-01T12:26:34;11.90;76.30
4406;DHT22;2216;53.806;11.598;2023-03-01T12:35:22;11.90;76.70
4406;DHT22;2216;53.806;11.598;2023-03-01T12:49:49;11.80;75.60
4406;DHT22;2216;53.806;11.598;2023-03-01T12:52:26;11.70;74.80
4406;DHT22;2216;53.806;11.598;2023-03-01T12:55:02;11.70;75.50
4406;DHT22;2216;53.806;11.598;2023-03-01T12:58:20;11.60;75.80
4406;DHT22;2216;53.806;11.598;2023-03-01T13:04:13;11.50;75.90
4406;DHT22;2216;53.806;11.598;2023-03-01T13:12:43;11.30;74.60
4406;DHT22;2216;53.806;11.598;2023-03-01T13:23:27;10.40;73.60
4406;DHT22;2216;53.806;11.598;2023-03-01T13:28:40;9.90;73.50
4406;DHT22;2216;53.806;11.598;2023-03-01T13:39:01;8.90;73.00
4406;DHT22;2216;53.806;11.598;2023-03-01T13:44:32;8.40;73.00
4406;DHT22;2216;53.806;11.598;2023-03-01T13:49:55;8.00;73.70
4406;DHT22;2216;53.806;11.598;2023-03-01T13:52:43;7.80;73.80
4406;DHT22;2216;53.806;11.598;2023-03-01T13:57:47;7.60;74.20
4406;DHT22;2216;53.806;11.598;2023-03-01T14:00:29;7.40;74.40
4406;DHT22;2216;53.806;11.598;2023-03-01T14:05:36;7.30;74.50
4406;DHT22;2216;53.806;11.598;2023-03-01T14:08:22;7.10;74.50
4406;DHT22;2216;53.806;11.598;2023-03-01T14:11:03;7.00;74.50
4406;DHT22;2216;53.806;11.598;2023-03-01T14:19:17;6.70;74.90
4406;DHT22;2216;53.806;11.598;2023-03-01T14:21:45;6.70;75.20
4406;DHT22;2216;53.806;11.598;2023-03-01T14:24:18;6.60;75.40
4406;DHT22;2216;53.806;11.598;2023-03-01T14:26:46;6.50;75.20
4406;DHT22;2216;53.806;11.598;2023-03-01T14:29:37;6.50;75.10
4406;DHT22;2216;53.806;11.598;2023-03-01T14:32:21;6.40;75.00
4406;DHT22;2216;53.806;11.598;2023-03-01T14:34:50;6.10;74.70
4406;DHT22;2216;53.806;11.598;2023-03-01T14:37:29;6.00;74.70
4406;DHT22;2216;53.806;11.598;2023-03-01T14:39:55;5.90;74.80
4406;DHT22;2216;53.806;11.598;2023-03-01T14:42:24;5.80;75.00
4406;DHT22;2216;53.806;11.598;2023-03-01T14:44:55;5.70;75.00
4406;DHT22;2216;53.806;11.598;2023-03-01T14:47:32;5.80;75.30
4406;DHT22;2216;53.806;11.598;2023-03-01T14:50:02;5.50;75.30
4406;DHT22;2216;53.806;11.598;2023-03-01T14:52:40;5.50;75.60
4406;DHT22;2216;53.806;11.598;2023-03-01T14:55:19;5.40;75.60
4406;DHT22;2216;53.806;11.598;2023-03-01T14:57:49;5.30;75.60
4406;DHT22;2216;53.806;11.598;2023-03-01T15:00:20;5.40;75.70
4406;DHT22;2216;53.806;11.598;2023-03-01T15:02:49;5.30;75.80
4406;DHT22;2216;53.806;11.598;2023-03-01T15:05:21;5.30;75.80
4406;DHT22;2216;53.806;11.598;2023-03-01T15:07:51;5.30;75.90
4406;DHT22;2216;53.806;11.598;2023-03-01T15:10:21;5.30;76.10
4406;DHT22;2216;53.806;11.598;2023-03-01T15:12:49;5.30;76.10
4406;DHT22;2216;53.806;11.598;2023-03-01T15:15:33;5.20;76.00
4406;DHT22;2216;53.806;11.598;2023-03-01T15:18:28;5.20;76.20
4406;DHT22;2216;53.806;11.598;2023-03-01T15:20:53;5.20;76.00
4406;DHT22;2216;53.806;11.598;2023-03-01T15:23:25;5.10;76.10
4406;DHT22;2216;53.806;11.598;2023-03-01T15:25:53;5.10;75.70
4406;DHT22;2216;53.806;11.598;2023-03-01T15:28:26;5.00;75.70
4406;DHT22;2216;53.806;11.598;2023-03-01T15:33:45;4.90;76.60
4406;DHT22;2216;53.806;11.598;2023-03-01T15:36:41;4.80;75.90
4406;DHT22;2216;53.806;11.598;2023-03-01T15:39:38;4.70;75.70
4406;DHT22;2216;53.806;11.598;2023-03-01T15:42:11;4.70;75.70
4406;DHT22;2216;53.806;11.598;2023-03-01T15:44:40;4.60;75.70
4406;DHT22;2216;53.806;11.598;2023-03-01T15:47:30;4.50;75.80
4406;DHT22;2216;53.806;11.598;2023-03-01T15:49:57;4.50;76.10
4406;DHT22;2216;53.806;11.598;2023-03-01T15:52:27;4.50;76.00
4406;DHT22;2216;53.806;11.598;2023-03-01T15:55:12;4.40;76.00
4406;DHT22;2216;53.806;11.598;2023-03-01T15:57:41;4.40;76.10
4406;DHT22;2216;53.806;11.598;2023-03-01T16:00:10;4.40;76.00
4406;DHT22;2216;53.806;11.598;2023-03-01T16:02:39;4.30;76.00
4406;DHT22;2216;53.806;11.598;2023-03-01T16:05:05;4.20;75.90
4406;DHT22;2216;53.806;11.598;2023-03-01T16:07:35;4.20;76.00
4406;DHT22;2216;53.806;11.598;2023-03-01T16:10:05;4.40;76.10
4406;DHT22;2216;53.806;11.598;2023-03-01T16:12:30;4.20;76.20
4406;DHT22;2216;53.806;11.598;2023-03-01T16:14:56;4.10;76.10
4406;DHT22;2216;53.806;11.598;2023-03-01T16:17:23;4.30;76.20
4406;DHT22;2216;53.806;11.598;2023-03-01T16:19:48;4.10;76.20
4406;DHT22;2216;53.806;11.598;2023-03-01T16:22:14;4.00;76.10
4406;DHT22;2216;53.806;11.598;2023-03-01T16:24:40;4.00;76.10
4406;DHT22;2216;53.806;11.598;2023-03-01T16:27:06;3.90;76.00
4406;DHT22;2216;53.806;11.598;2023-03-01T16:29:32;3.90;76.00
4406;DHT22;2216;53.806;11.598;2023-03-01T16:32:00;3.90;76.10
4406;DHT22;2216;53.806;11.598;2023-03-01T16:34:26;3.90;76.20
4406;DHT22;2216;53.806;11.598;2023-03-01T16:36:52;3.90;76.20
4406;DHT22;2216;53.806;11.598;2023-03-01T16:39:18;3.90;76.30
4406;DHT22;2216;53.806;11.598;2023-03-01T16:41:43;3.90;76.20
4406;DHT22;2216;53.806;11.598;2023-03-01T16:44:09;3.80;76.10
4406;DHT22;2216;53.806;11.598;2023-03-01T16:46:35;3.80;76.10
4406;DHT22;2216;53.806;11.598;2023-03-01T16:49:00;3.80;76.10
4406;DHT22;2216;53.806;11.598;2023-03-01T16:51:26;3.80;76.10
4406;DHT22;2216;53.806;11.598;2023-03-01T16:53:52;3.80;76.10
4406;DHT22;2216;53.806;11.598;2023-03-01T16:56:18;3.80;76.00
4406;DHT22;2216;53.806;11.598;2023-03-01T16:58:44;3.80;76.00
4406;DHT22;2216;53.806;11.598;2023-03-01T17:01:19;3.70;76.00
4406;DHT22;2216;53.806;11.598;2023-03-01T17:03:46;3.70;76.00
4406;DHT22;2216;53.806;11.598;2023-03-01T17:06:15;3.70;76.00
4406;DHT22;2216;53.806;11.598;2023-03-01T17:08:42;3.60;76.00
4406;DHT22;2216;53.806;11.598;2023-03-01T17:11:10;3.60;76.10
4406;DHT22;2216;53.806;11.598;2023-03-01T17:13:37;3.60;76.00
4406;DHT22;2216;53.806;11.598;2023-03-01T17:16:05;3.60;76.00
4406;DHT22;2216;53.806;11.598;2023-03-01T17:18:31;3.60;76.00
4406;DHT22;2216;53.806;11.598;2023-03-01T17:20:58;3.50;76.00
4406;DHT22;2216;53.806;11.598;2023-03-01T17:23:23;3.50;76.10
4406;DHT22;2216;53.806;11.598;2023-03-01T17:25:49;3.60;76.20
4406;DHT22;2216;53.806;11.598;2023-03-01T17:28:15;3.50;76.00
4406;DHT22;2216;53.806;11.598;2023-03-01T17:30:43;3.50;76.10
4406;DHT22;2216;53.806;11.598;2023-03-01T17:33:10;3.50;76.00
4406;DHT22;2216;53.806;11.598;2023-03-01T17:35:36;3.50;76.20
4406;DHT22;2216;53.806;11.598;2023-03-01T17:38:03;3.40;76.00
4406;DHT22;2216;53.806;11.598;2023-03-01T17:40:30;3.40;75.90
4406;DHT22;2216;53.806;11.598;2023-03-01T17:42:57;3.40;76.00
4406;DHT22;2216;53.806;11.598;2023-03-01T17:45:22;3.40;76.00
4406;DHT22;2216;53.806;11.598;2023-03-01T17:47:48;3.30;76.10
4406;DHT22;2216;53.806;11.598;2023-03-01T17:50:14;3.30;76.10
4406;DHT22;2216;53.806;11.598;2023-03-01T17:52:40;3.30;76.20
4406;DHT22;2216;53.806;11.598;2023-03-01T17:55:07;3.20;76.20
4406;DHT22;2216;53.806;11.598;2023-03-01T17:57:33;3.30;76.20
4406;DHT22;2216;53.806;11.598;2023-03-01T17:59:59;3.30;76.20
4406;DHT22;2216;53.806;11.598;2023-03-01T18:02:25;3.30;76.20
4406;DHT22;2216;53.806;11.598;2023-03-01T18:04:51;3.30;76.20
4406;DHT22;2216;53.806;11.598;2023-03-01T18:07:18;3.30;76.30
4406;DHT22;2216;53.806;11.598;2023-03-01T18:09:44;3.30;76.30
4406;DHT22;2216;53.806;11.598;2023-03-01T18:12:10;3.30;76.30
4406;DHT22;2216;53.806;11.598;2023-03-01T18:14:36;3.40;76.30
4406;DHT22;2216;53.806;11.598;2023-03-01T18:17:01;3.30;76.30